sensor_id;sensor_type;location;lat;lon;timestamp;P1;durP1;ratioP1;P2;durP2;ratioP2
4486;SDS011;2256;48.740;9.106;2023-02-20T00:00:16;12.50;;;3.97;;
4486;SDS011;2256;48.740;9.106;2023-02-20T00:02:44;9.48;;;3.83;;
4486;SDS011;2256;48.740;9.106;2023-02-20T00:05:12;8.10;;;4.20;;
4486;SDS011;2256;48.740;9.106;2023-02-20T00:07:41;7.87;;;4.00;;
4486;SDS011;2256;48.740;9.106;2023-02-20T00:10:09;11.77;;;4.00;;
4486;SDS011;2256;48.740;9.106;2023-02-20T00:12:36;12.23;;;3.73;;
4486;SDS011;2256;48.740;9.106;2023-02-20T00:15:04;9.50;;;4.10;;
4486;SDS011;2256;48.740;9.106;2023-02-20T00:17:32;11.50;;;3.17;;
4486;SDS011;2256;48.740;9.106;2023-02-20T00:19:58;8.87;;;4.30;;
4486;SDS011;2256;48.740;9.106;2023-02-20T00:22:25;15.33;;;4.00;;
4486;SDS011;2256;48.740;9.106;2023-02-20T00:24:54;12.03;;;3.60;;
4486;SDS011;2256;48.740;9.106;2023-02-20T00:27:21;11.20;;;4.13;;
4486;SDS011;2256;48.740;9.106;2023-02-20T00:29:47;6.93;;;3.60;;
4486;SDS011;2256;48.740;9.106;2023-02-20T00:32:14;11.23;;;3.70;;
4486;SDS011;2256;48.740;9.106;2023-02-20T00:34:41;24.97;;;4.23;;
4486;SDS011;2256;48.740;9.106;2023-02-20T00:37:08;8.50;;;4.23;;
4486;SDS011;2256;48.740;9.106;2023-02-20T00:39:35;9.23;;;3.77;;
4486;SDS011;2256;48.740;9.106;2023-02-20T00:42:04;10.80;;;4.30;;
4486;SDS011;2256;48.740;9.106;2023-02-20T00:44:30;18.47;;;4.40;;
4486;SDS011;2256;48.740;9.106;2023-02-20T00:46:57;9.50;;;3.80;;
4486;SDS011;2256;48.740;9.106;2023-02-20T00:49:24;14.67;;;4.43;;
4486;SDS011;2256;48.740;9.106;2023-02-20T00:51:51;15.10;;;4.00;;
4486;SDS011;2256;48.740;9.106;2023-02-20T00:54:18;7.30;;;3.85;;
4486;SDS011;2256;48.740;9.106;2023-02-20T00:56:45;12.37;;;4.20;;
4486;SDS011;2256;48.740;9.106;2023-02-20T00:59:13;7.20;;;3.93;;
4486;SDS011;2256;48.740;9.106;2023-02-20T01:01:40;12.10;;;4.40;;
4486;SDS011;2256;48.740;9.106;2023-02-20T01:04:06;18.97;;;4.60;;
4486;SDS011;2256;48.740;9.106;2023-02-20T01:06:33;9.97;;;4.40;;
4486;SDS011;2256;48.740;9.106;2023-02-20T01:09:00;9.03;;;4.27;;
4486;SDS011;2256;48.740;9.106;2023-02-20T01:11:27;7.33;;;4.33;;
4486;SDS011;2256;48.740;9.106;2023-02-20T01:13:54;12.07;;;4.50;;
4486;SDS011;2256;48.740;9.106;2023-02-20T01:16:22;9.40;;;4.47;;
4486;SDS011;2256;48.740;9.106;2023-02-20T01:18:49;7.00;;;4.33;;
4486;SDS011;2256;48.740;9.106;2023-02-20T01:21:17;9.70;;;3.50;;
4486;SDS011;2256;48.740;9.106;2023-02-20T01:23:44;18.87;;;4.23;;
4486;SDS011;2256;48.740;9.106;2023-02-20T01:26:10;8.20;;;3.73;;
4486;SDS011;2256;48.740;9.106;2023-02-20T01:28:37;7.37;;;3.30;;
4486;SDS011;2256;48.740;9.106;2023-02-20T01:31:04;9.03;;;3.83;;
4486;SDS011;2256;48.740;9.106;2023-02-20T01:33:33;9.57;;;3.80;;
4486;SDS011;2256;48.740;9.106;2023-02-20T01:36:00;9.37;;;3.90;;
4486;SDS011;2256;48.740;9.106;2023-02-20T01:38:27;8.65;;;3.80;;
4486;SDS011;2256;48.740;9.106;2023-02-20T01:40:54;11.50;;;4.17;;
4486;SDS011;2256;48.740;9.106;2023-02-20T01:43:20;16.33;;;4.13;;
4486;SDS011;2256;48.740;9.106;2023-02-20T01:45:47;10.18;;;3.83;;
4486;SDS011;2256;48.740;9.106;2023-02-20T01:48:18;8.87;;;3.60;;
4486;SDS011;2256;48.740;9.106;2023-02-20T01:50:47;13.77;;;3.87;;
4486;SDS011;2256;48.740;9.106;2023-02-20T01:53:19;7.38;;;3.40;;
4486;SDS011;2256;48.740;9.106;2023-02-20T01:55:49;9.57;;;3.57;;
4486;SDS011;2256;48.740;9.106;2023-02-20T01:58:19;7.25;;;3.60;;
4486;SDS011;2256;48.740;9.106;2023-02-20T02:00:49;8.50;;;3.60;;
4486;SDS011;2256;48.740;9.106;2023-02-20T02:03:16;7.82;;;3.53;;
4486;SDS011;2256;48.740;9.106;2023-02-20T02:05:48;7.75;;;3.55;;
4486;SDS011;2256;48.740;9.106;2023-02-20T02:08:19;7.43;;;3.57;;
4486;SDS011;2256;48.740;9.106;2023-02-20T02:10:49;17.33;;;4.10;;
4486;SDS011;2256;48.740;9.106;2023-02-20T02:13:22;9.20;;;3.30;;
4486;SDS011;2256;48.740;9.106;2023-02-20T02:15:50;11.87;;;3.63;;
4486;SDS011;2256;48.740;9.106;2023-02-20T02:18:30;9.00;;;3.87;;
4486;SDS011;2256;48.740;9.106;2023-02-20T02:21:11;5.57;;;3.40;;
4486;SDS011;2256;48.740;9.106;2023-02-20T02:30:18;6.33;;;3.33;;
4486;SDS011;2256;48.740;9.106;2023-02-20T02:33:30;9.70;;;3.90;;
4486;SDS011;2256;48.740;9.106;2023-02-20T02:36:18;8.30;;;3.67;;
4486;SDS011;2256;48.740;9.106;2023-02-20T02:39:02;15.53;;;3.70;;
4486;SDS011;2256;48.740;9.106;2023-02-20T02:41:40;6.53;;;3.60;;
4486;SDS011;2256;48.740;9.106;2023-02-20T02:44:12;8.33;;;3.43;;
4486;SDS011;2256;48.740;9.106;2023-02-20T02:46:46;6.17;;;3.37;;
4486;SDS011;2256;48.740;9.106;2023-02-20T02:49:18;9.88;;;3.58;;
4486;SDS011;2256;48.740;9.106;2023-02-20T02:51:51;11.53;;;3.87;;
4486;SDS011;2256;48.740;9.106;2023-02-20T02:54:23;10.87;;;4.10;;
4486;SDS011;2256;48.740;9.106;2023-02-20T02:56:51;9.33;;;3.97;;
4486;SDS011;2256;48.740;9.106;2023-02-20T02:59:20;5.53;;;3.67;;
4486;SDS011;2256;48.740;9.106;2023-02-20T03:01:54;8.60;;;3.57;;
4486;SDS011;2256;48.740;9.106;2023-02-20T03:04:24;5.63;;;3.10;;
4486;SDS011;2256;48.740;9.106;2023-02-20T03:06:56;12.67;;;3.43;;
4486;SDS011;2256;48.740;9.106;2023-02-20T03:09:25;13.30;;;3.37;;
4486;SDS011;2256;48.740;9.106;2023-02-20T03:11:56;8.60;;;3.90;;
4486;SDS011;2256;48.740;9.106;2023-02-20T03:14:29;24.10;;;4.80;;
4486;SDS011;2256;48.740;9.106;2023-02-20T03:17:17;10.43;;;3.57;;
4486;SDS011;2256;48.740;9.106;2023-02-20T03:19:51;32.93;;;4.70;;
4486;SDS011;2256;48.740;9.106;2023-02-20T03:22:23;11.00;;;3.47;;
4486;SDS011;2256;48.740;9.106;2023-02-20T03:24:53;11.60;;;3.33;;
4486;SDS011;2256;48.740;9.106;2023-02-20T03:27:26;10.23;;;3.20;;
4486;SDS011;2256;48.740;9.106;2023-02-20T03:30:03;9.43;;;3.80;;
4486;SDS011;2256;48.740;9.106;2023-02-20T03:32:34;5.93;;;3.03;;
4486;SDS011;2256;48.740;9.106;2023-02-20T03:35:20;8.90;;;3.13;;
4486;SDS011;2256;48.740;9.106;2023-02-20T03:38:10;4.87;;;3.23;;
4486;SDS011;2256;48.740;9.106;2023-02-20T03:40:57;8.13;;;3.37;;
4486;SDS011;2256;48.740;9.106;2023-02-20T03:43:43;10.00;;;3.23;;
4486;SDS011;2256;48.740;9.106;2023-02-20T03:46:12;15.53;;;3.50;;
4486;SDS011;2256;48.740;9.106;2023-02-20T03:48:45;6.80;;;3.43;;
4486;SDS011;2256;48.740;9.106;2023-02-20T03:51:18;10.27;;;3.67;;
4486;SDS011;2256;48.740;9.106;2023-02-20T03:53:47;11.00;;;3.33;;
4486;SDS011;2256;48.740;9.106;2023-02-20T03:56:14;8.17;;;3.43;;
4486;SDS011;2256;48.740;9.106;2023-02-20T03:58:45;8.65;;;3.70;;
4486;SDS011;2256;48.740;9.106;2023-02-20T04:01:16;10.43;;;3.53;;
4486;SDS011;2256;48.740;9.106;2023-02-20T04:03:47;9.70;;;4.00;;
4486;SDS011;2256;48.740;9.106;2023-02-20T04:06:16;16.85;;;4.30;;
4486;SDS011;2256;48.740;9.106;2023-02-20T04:08:48;9.30;;;3.75;;
4486;SDS011;2256;48.740;9.106;2023-02-20T04:11:20;9.30;;;4.22;;
4486;SDS011;2256;48.740;9.106;2023-02-20T04:13:50;14.25;;;4.88;;
4486;SDS011;2256;48.740;9.106;2023-02-20T04:16:19;6.80;;;3.73;;
4486;SDS011;2256;48.740;9.106;2023-02-20T04:18:47;12.10;;;4.20;;
4486;SDS011;2256;48.740;9.106;2023-02-20T04:21:16;12.93;;;3.63;;
4486;SDS011;2256;48.740;9.106;2023-02-20T04:23:48;12.15;;;4.40;;
4486;SDS011;2256;48.740;9.106;2023-02-20T04:26:22;11.77;;;4.40;;
4486;SDS011;2256;48.740;9.106;2023-02-20T04:28:49;7.72;;;3.45;;
4486;SDS011;2256;48.740;9.106;2023-02-20T04:31:17;5.80;;;3.60;;
4486;SDS011;2256;48.740;9.106;2023-02-20T04:33:45;11.23;;;4.33;;
4486;SDS011;2256;48.740;9.106;2023-02-20T04:36:12;9.13;;;4.32;;
4486;SDS011;2256;48.740;9.106;2023-02-20T04:38:39;14.68;;;4.50;;
4486;SDS011;2256;48.740;9.106;2023-02-20T04:41:07;10.68;;;4.38;;
4486;SDS011;2256;48.740;9.106;2023-02-20T04:43:34;11.93;;;4.22;;
4486;SDS011;2256;48.740;9.106;2023-02-20T04:46:01;9.75;;;4.80;;
4486;SDS011;2256;48.740;9.106;2023-02-20T04:48:28;8.55;;;4.45;;
4486;SDS011;2256;48.740;9.106;2023-02-20T04:50:54;11.85;;;3.92;;
4486;SDS011;2256;48.740;9.106;2023-02-20T04:53:21;11.25;;;4.20;;
4486;SDS011;2256;48.740;9.106;2023-02-20T04:55:48;15.98;;;4.22;;
4486;SDS011;2256;48.740;9.106;2023-02-20T04:58:16;12.50;;;4.93;;
4486;SDS011;2256;48.740;9.106;2023-02-20T05:00:43;6.40;;;3.72;;
4486;SDS011;2256;48.740;9.106;2023-02-20T05:03:10;18.85;;;4.10;;
4486;SDS011;2256;48.740;9.106;2023-02-20T05:05:37;11.43;;;4.20;;
4486;SDS011;2256;48.740;9.106;2023-02-20T05:08:04;9.98;;;4.70;;
4486;SDS011;2256;48.740;9.106;2023-02-20T05:10:33;9.02;;;4.15;;
4486;SDS011;2256;48.740;9.106;2023-02-20T05:13:01;8.88;;;3.95;;
4486;SDS011;2256;48.740;9.106;2023-02-20T05:15:29;13.48;;;5.10;;
4486;SDS011;2256;48.740;9.106;2023-02-20T05:17:56;16.52;;;4.85;;
4486;SDS011;2256;48.740;9.106;2023-02-20T05:20:23;10.35;;;4.47;;
4486;SDS011;2256;48.740;9.106;2023-02-20T05:23:10;7.53;;;4.28;;
4486;SDS011;2256;48.740;9.106;2023-02-20T05:25:36;10.10;;;4.23;;
4486;SDS011;2256;48.740;9.106;2023-02-20T05:28:03;10.63;;;4.40;;
4486;SDS011;2256;48.740;9.106;2023-02-20T05:30:31;12.85;;;5.40;;
4486;SDS011;2256;48.740;9.106;2023-02-20T05:32:57;12.65;;;4.90;;
4486;SDS011;2256;48.740;9.106;2023-02-20T05:35:24;11.20;;;5.10;;
4486;SDS011;2256;48.740;9.106;2023-02-20T05:37:51;13.50;;;5.03;;
4486;SDS011;2256;48.740;9.106;2023-02-20T05:40:18;11.40;;;4.80;;
4486;SDS011;2256;48.740;9.106;2023-02-20T05:42:44;14.40;;;5.07;;
4486;SDS011;2256;48.740;9.106;2023-02-20T05:45:12;16.42;;;4.95;;
4486;SDS011;2256;48.740;9.106;2023-02-20T05:47:41;17.52;;;6.25;;
4486;SDS011;2256;48.740;9.106;2023-02-20T05:50:07;22.92;;;4.90;;
4486;SDS011;2256;48.740;9.106;2023-02-20T05:52:34;13.55;;;4.97;;
4486;SDS011;2256;48.740;9.106;2023-02-20T05:55:01;10.93;;;4.82;;
4486;SDS011;2256;48.740;9.106;2023-02-20T05:57:28;12.27;;;4.68;;
4486;SDS011;2256;48.740;9.106;2023-02-20T05:59:55;9.77;;;4.82;;
4486;SDS011;2256;48.740;9.106;2023-02-20T06:02:21;12.60;;;5.18;;
4486;SDS011;2256;48.740;9.106;2023-02-20T06:04:49;19.65;;;5.18;;
4486;SDS011;2256;48.740;9.106;2023-02-20T06:07:16;11.05;;;4.20;;
4486;SDS011;2256;48.740;9.106;2023-02-20T06:09:43;9.88;;;5.05;;
4486;SDS011;2256;48.740;9.106;2023-02-20T06:12:10;21.98;;;6.00;;
4486;SDS011;2256;48.740;9.106;2023-02-20T06:14:38;15.48;;;5.72;;
4486;SDS011;2256;48.740;9.106;2023-02-20T06:17:05;25.83;;;5.78;;
4486;SDS011;2256;48.740;9.106;2023-02-20T06:19:32;13.50;;;5.78;;
4486;SDS011;2256;48.740;9.106;2023-02-20T06:22:00;23.80;;;5.63;;
4486;SDS011;2256;48.740;9.106;2023-02-20T06:24:27;17.60;;;5.95;;
4486;SDS011;2256;48.740;9.106;2023-02-20T06:26:54;20.05;;;5.45;;
4486;SDS011;2256;48.740;9.106;2023-02-20T06:29:21;22.63;;;6.38;;
4486;SDS011;2256;48.740;9.106;2023-02-20T06:31:48;14.70;;;5.83;;
4486;SDS011;2256;48.740;9.106;2023-02-20T06:34:15;17.40;;;6.50;;
4486;SDS011;2256;48.740;9.106;2023-02-20T06:36:42;15.95;;;5.10;;
4486;SDS011;2256;48.740;9.106;2023-02-20T06:39:11;14.93;;;5.10;;
4486;SDS011;2256;48.740;9.106;2023-02-20T06:41:39;19.85;;;6.00;;
4486;SDS011;2256;48.740;9.106;2023-02-20T06:44:05;17.77;;;6.65;;
4486;SDS011;2256;48.740;9.106;2023-02-20T06:46:32;12.32;;;5.82;;
4486;SDS011;2256;48.740;9.106;2023-02-20T06:48:59;18.15;;;5.68;;
4486;SDS011;2256;48.740;9.106;2023-02-20T06:51:27;10.88;;;4.63;;
4486;SDS011;2256;48.740;9.106;2023-02-20T06:53:55;14.27;;;5.57;;
4486;SDS011;2256;48.740;9.106;2023-02-20T06:56:25;10.73;;;4.65;;
4486;SDS011;2256;48.740;9.106;2023-02-20T06:58:53;15.32;;;5.40;;
4486;SDS011;2256;48.740;9.106;2023-02-20T07:01:21;12.93;;;5.63;;
4486;SDS011;2256;48.740;9.106;2023-02-20T07:03:51;13.57;;;5.43;;
4486;SDS011;2256;48.740;9.106;2023-02-20T07:06:19;17.25;;;5.38;;
4486;SDS011;2256;48.740;9.106;2023-02-20T07:08:46;13.38;;;6.13;;
4486;SDS011;2256;48.740;9.106;2023-02-20T07:11:13;15.57;;;5.03;;
4486;SDS011;2256;48.740;9.106;2023-02-20T07:13:44;9.20;;;4.85;;
4486;SDS011;2256;48.740;9.106;2023-02-20T07:16:11;12.57;;;4.07;;
4486;SDS011;2256;48.740;9.106;2023-02-20T07:18:38;13.07;;;4.55;;
4486;SDS011;2256;48.740;9.106;2023-02-20T07:21:04;33.25;;;5.38;;
4486;SDS011;2256;48.740;9.106;2023-02-20T07:23:32;17.60;;;5.65;;
4486;SDS011;2256;48.740;9.106;2023-02-20T07:25:58;26.02;;;5.00;;
4486;SDS011;2256;48.740;9.106;2023-02-20T07:28:25;11.77;;;4.57;;
4486;SDS011;2256;48.740;9.106;2023-02-20T07:30:53;26.92;;;4.32;;
4486;SDS011;2256;48.740;9.106;2023-02-20T07:33:20;17.40;;;5.00;;
4486;SDS011;2256;48.740;9.106;2023-02-20T07:35:47;24.70;;;5.38;;
4486;SDS011;2256;48.740;9.106;2023-02-20T07:38:13;44.37;;;5.43;;
4486;SDS011;2256;48.740;9.106;2023-02-20T07:40:40;11.80;;;3.70;;
4486;SDS011;2256;48.740;9.106;2023-02-20T07:43:07;18.23;;;4.30;;
4486;SDS011;2256;48.740;9.106;2023-02-20T07:45:34;16.03;;;4.07;;
4486;SDS011;2256;48.740;9.106;2023-02-20T07:48:04;7.77;;;3.27;;
4486;SDS011;2256;48.740;9.106;2023-02-20T07:50:30;9.40;;;4.57;;
4486;SDS011;2256;48.740;9.106;2023-02-20T07:52:58;6.83;;;3.40;;
4486;SDS011;2256;48.740;9.106;2023-02-20T07:55:25;8.83;;;3.57;;
4486;SDS011;2256;48.740;9.106;2023-02-20T07:57:52;13.67;;;4.30;;
4486;SDS011;2256;48.740;9.106;2023-02-20T08:00:22;22.83;;;3.40;;
4486;SDS011;2256;48.740;9.106;2023-02-20T08:02:50;9.60;;;3.40;;
4486;SDS011;2256;48.740;9.106;2023-02-20T08:05:19;5.73;;;3.40;;
4486;SDS011;2256;48.740;9.106;2023-02-20T08:07:46;6.07;;;3.40;;
4486;SDS011;2256;48.740;9.106;2023-02-20T08:10:14;9.80;;;3.70;;
4486;SDS011;2256;48.740;9.106;2023-02-20T08:12:42;15.23;;;4.43;;
4486;SDS011;2256;48.740;9.106;2023-02-20T08:15:09;8.10;;;3.70;;
4486;SDS011;2256;48.740;9.106;2023-02-20T08:17:36;6.60;;;3.07;;
4486;SDS011;2256;48.740;9.106;2023-02-20T08:20:04;10.53;;;3.50;;
4486;SDS011;2256;48.740;9.106;2023-02-20T08:22:33;7.70;;;3.80;;
4486;SDS011;2256;48.740;9.106;2023-02-20T08:25:00;9.43;;;3.40;;
4486;SDS011;2256;48.740;9.106;2023-02-20T08:27:28;8.57;;;3.67;;
4486;SDS011;2256;48.740;9.106;2023-02-20T08:29:55;6.43;;;3.43;;
4486;SDS011;2256;48.740;9.106;2023-02-20T08:32:21;11.40;;;3.50;;
4486;SDS011;2256;48.740;9.106;2023-02-20T08:34:48;5.80;;;3.50;;
4486;SDS011;2256;48.740;9.106;2023-02-20T08:37:15;8.13;;;3.80;;
4486;SDS011;2256;48.740;9.106;2023-02-20T08:39:43;10.23;;;3.70;;
4486;SDS011;2256;48.740;9.106;2023-02-20T08:42:13;9.23;;;3.20;;
4486;SDS011;2256;48.740;9.106;2023-02-20T08:44:40;8.30;;;3.27;;
4486;SDS011;2256;48.740;9.106;2023-02-20T08:47:07;34.57;;;4.00;;
4486;SDS011;2256;48.740;9.106;2023-02-20T08:49:34;10.37;;;3.70;;
4486;SDS011;2256;48.740;9.106;2023-02-20T08:52:01;11.50;;;3.73;;
4486;SDS011;2256;48.740;9.106;2023-02-20T08:54:29;7.50;;;3.13;;
4486;SDS011;2256;48.740;9.106;2023-02-20T08:56:58;5.07;;;2.97;;
4486;SDS011;2256;48.740;9.106;2023-02-20T08:59:25;13.53;;;2.87;;
4486;SDS011;2256;48.740;9.106;2023-02-20T09:01:51;14.73;;;4.83;;
4486;SDS011;2256;48.740;9.106;2023-02-20T09:04:18;8.53;;;2.70;;
4486;SDS011;2256;48.740;9.106;2023-02-20T09:06:46;10.13;;;3.00;;
4486;SDS011;2256;48.740;9.106;2023-02-20T09:09:12;12.27;;;3.57;;
4486;SDS011;2256;48.740;9.106;2023-02-20T09:11:39;8.53;;;3.03;;
4486;SDS011;2256;48.740;9.106;2023-02-20T09:14:07;22.20;;;3.20;;
4486;SDS011;2256;48.740;9.106;2023-02-20T09:16:34;13.57;;;3.17;;
4486;SDS011;2256;48.740;9.106;2023-02-20T09:19:01;15.27;;;3.00;;
4486;SDS011;2256;48.740;9.106;2023-02-20T09:21:28;11.90;;;3.40;;
4486;SDS011;2256;48.740;9.106;2023-02-20T09:23:54;14.07;;;3.80;;
4486;SDS011;2256;48.740;9.106;2023-02-20T09:26:21;16.83;;;2.67;;
4486;SDS011;2256;48.740;9.106;2023-02-20T09:28:48;4.60;;;2.43;;
4486;SDS011;2256;48.740;9.106;2023-02-20T09:31:16;11.93;;;2.40;;
4486;SDS011;2256;48.740;9.106;2023-02-20T09:33:43;19.77;;;3.50;;
4486;SDS011;2256;48.740;9.106;2023-02-20T09:36:10;9.93;;;3.03;;
4486;SDS011;2256;48.740;9.106;2023-02-20T09:38:37;9.40;;;2.97;;
4486;SDS011;2256;48.740;9.106;2023-02-20T09:41:04;6.83;;;3.10;;
4486;SDS011;2256;48.740;9.106;2023-02-20T09:43:38;18.93;;;3.37;;
4486;SDS011;2256;48.740;9.106;2023-02-20T09:46:12;17.00;;;3.33;;
4486;SDS011;2256;48.740;9.106;2023-02-20T09:48:50;10.13;;;3.03;;
4486;SDS011;2256;48.740;9.106;2023-02-20T09:51:29;10.47;;;2.17;;
4486;SDS011;2256;48.740;9.106;2023-02-20T09:54:00;9.17;;;2.40;;
4486;SDS011;2256;48.740;9.106;2023-02-20T09:56:32;8.30;;;3.73;;
4486;SDS011;2256;48.740;9.106;2023-02-20T09:59:04;18.23;;;3.10;;
4486;SDS011;2256;48.740;9.106;2023-02-20T10:01:37;6.60;;;2.77;;
4486;SDS011;2256;48.740;9.106;2023-02-20T10:04:09;17.10;;;3.43;;
4486;SDS011;2256;48.740;9.106;2023-02-20T10:06:39;16.00;;;3.20;;
4486;SDS011;2256;48.740;9.106;2023-02-20T10:09:08;13.70;;;3.83;;
4486;SDS011;2256;48.740;9.106;2023-02-20T10:11:40;11.07;;;3.40;;
4486;SDS011;2256;48.740;9.106;2023-02-20T10:14:28;24.50;;;3.80;;
4486;SDS011;2256;48.740;9.106;2023-02-20T10:17:14;13.47;;;3.83;;
4486;SDS011;2256;48.740;9.106;2023-02-20T10:19:50;11.67;;;3.40;;
4486;SDS011;2256;48.740;9.106;2023-02-20T10:22:22;13.43;;;2.80;;
4486;SDS011;2256;48.740;9.106;2023-02-20T10:25:00;9.77;;;3.23;;
4486;SDS011;2256;48.740;9.106;2023-02-20T10:27:37;7.57;;;3.10;;
4486;SDS011;2256;48.740;9.106;2023-02-20T10:30:13;11.43;;;2.80;;
4486;SDS011;2256;48.740;9.106;2023-02-20T10:32:49;13.47;;;2.90;;
4486;SDS011;2256;48.740;9.106;2023-02-20T10:35:22;14.13;;;3.00;;
4486;SDS011;2256;48.740;9.106;2023-02-20T10:37:52;16.20;;;3.67;;
4486;SDS011;2256;48.740;9.106;2023-02-20T10:40:23;16.20;;;3.30;;
4486;SDS011;2256;48.740;9.106;2023-02-20T10:42:57;17.40;;;3.40;;
4486;SDS011;2256;48.740;9.106;2023-02-20T10:45:29;17.93;;;2.93;;
4486;SDS011;2256;48.740;9.106;2023-02-20T10:48:05;4.53;;;2.20;;
4486;SDS011;2256;48.740;9.106;2023-02-20T10:50:35;11.00;;;2.13;;
4486;SDS011;2256;48.740;9.106;2023-02-20T10:53:10;17.50;;;2.40;;
4486;SDS011;2256;48.740;9.106;2023-02-20T10:55:45;8.90;;;2.23;;
4486;SDS011;2256;48.740;9.106;2023-02-20T10:58:18;6.80;;;2.10;;
4486;SDS011;2256;48.740;9.106;2023-02-20T11:00:49;4.03;;;2.27;;
4486;SDS011;2256;48.740;9.106;2023-02-20T11:03:22;9.97;;;2.57;;
4486;SDS011;2256;48.740;9.106;2023-02-20T11:05:53;9.53;;;2.63;;
4486;SDS011;2256;48.740;9.106;2023-02-20T11:08:23;2.63;;;2.07;;
4486;SDS011;2256;48.740;9.106;2023-02-20T11:10:52;7.53;;;2.90;;
4486;SDS011;2256;48.740;9.106;2023-02-20T11:13:23;9.87;;;2.67;;
4486;SDS011;2256;48.740;9.106;2023-02-20T11:15:52;9.23;;;2.67;;
4486;SDS011;2256;48.740;9.106;2023-02-20T11:18:24;13.23;;;2.80;;
4486;SDS011;2256;48.740;9.106;2023-02-20T11:20:55;5.33;;;2.40;;
4486;SDS011;2256;48.740;9.106;2023-02-20T11:23:35;13.50;;;3.30;;
4486;SDS011;2256;48.740;9.106;2023-02-20T11:29:05;6.63;;;2.47;;
4486;SDS011;2256;48.740;9.106;2023-02-20T11:31:40;6.23;;;2.27;;
4486;SDS011;2256;48.740;9.106;2023-02-20T11:34:13;8.50;;;2.70;;
4486;SDS011;2256;48.740;9.106;2023-02-20T11:36:44;5.80;;;2.27;;
4486;SDS011;2256;48.740;9.106;2023-02-20T11:39:14;6.23;;;1.87;;
4486;SDS011;2256;48.740;9.106;2023-02-20T11:41:46;3.87;;;2.00;;
4486;SDS011;2256;48.740;9.106;2023-02-20T11:44:16;6.40;;;2.47;;
4486;SDS011;2256;48.740;9.106;2023-02-20T11:46:46;6.23;;;2.10;;
4486;SDS011;2256;48.740;9.106;2023-02-20T11:49:24;8.03;;;2.37;;
4486;SDS011;2256;48.740;9.106;2023-02-20T11:51:52;3.47;;;1.90;;
4486;SDS011;2256;48.740;9.106;2023-02-20T11:54:32;6.57;;;2.10;;
4486;SDS011;2256;48.740;9.106;2023-02-20T11:57:00;4.20;;;1.60;;
4486;SDS011;2256;48.740;9.106;2023-02-20T11:59:31;5.23;;;1.80;;
4486;SDS011;2256;48.740;9.106;2023-02-20T12:02:11;9.20;;;1.63;;
4486;SDS011;2256;48.740;9.106;2023-02-20T12:05:01;6.90;;;2.50;;
4486;SDS011;2256;48.740;9.106;2023-02-20T12:07:38;8.20;;;1.80;;
4486;SDS011;2256;48.740;9.106;2023-02-20T12:13:05;2.23;;;1.40;;
4486;SDS011;2256;48.740;9.106;2023-02-20T12:15:36;12.60;;;2.20;;
4486;SDS011;2256;48.740;9.106;2023-02-20T12:21:17;3.37;;;1.60;;
4486;SDS011;2256;48.740;9.106;2023-02-20T12:23:56;8.33;;;1.87;;
4486;SDS011;2256;48.740;9.106;2023-02-20T12:26:35;3.57;;;1.80;;
4486;SDS011;2256;48.740;9.106;2023-02-20T12:29:21;7.73;;;1.60;;
4486;SDS011;2256;48.740;9.106;2023-02-20T12:31:59;4.90;;;1.63;;
4486;SDS011;2256;48.740;9.106;2023-02-20T12:34:43;3.17;;;1.40;;
4486;SDS011;2256;48.740;9.106;2023-02-20T12:37:23;4.63;;;1.80;;
4486;SDS011;2256;48.740;9.106;2023-02-20T12:40:01;7.90;;;1.60;;
4486;SDS011;2256;48.740;9.106;2023-02-20T12:42:37;6.20;;;1.80;;
4486;SDS011;2256;48.740;9.106;2023-02-20T12:45:15;3.93;;;1.57;;
4486;SDS011;2256;48.740;9.106;2023-02-20T12:47:45;3.87;;;1.50;;
4486;SDS011;2256;48.740;9.106;2023-02-20T12:50:20;7.30;;;1.53;;
4486;SDS011;2256;48.740;9.106;2023-02-20T12:53:03;6.33;;;1.50;;
4486;SDS011;2256;48.740;9.106;2023-02-20T12:55:38;8.30;;;1.77;;
4486;SDS011;2256;48.740;9.106;2023-02-20T12:58:20;4.60;;;1.90;;
4486;SDS011;2256;48.740;9.106;2023-02-20T13:00:56;1.23;;;1.10;;
4486;SDS011;2256;48.740;9.106;2023-02-20T13:03:34;2.67;;;1.33;;
4486;SDS011;2256;48.740;9.106;2023-02-20T13:06:06;4.83;;;1.30;;
4486;SDS011;2256;48.740;9.106;2023-02-20T13:08:35;2.67;;;1.47;;
4486;SDS011;2256;48.740;9.106;2023-02-20T13:11:10;2.30;;;1.00;;
4486;SDS011;2256;48.740;9.106;2023-02-20T13:13:44;1.33;;;1.10;;
4486;SDS011;2256;48.740;9.106;2023-02-20T13:16:21;9.03;;;1.30;;
4486;SDS011;2256;48.740;9.106;2023-02-20T13:18:53;3.13;;;1.50;;
4486;SDS011;2256;48.740;9.106;2023-02-20T13:21:24;3.20;;;1.40;;
4486;SDS011;2256;48.740;9.106;2023-02-20T13:26:53;6.73;;;1.30;;
4486;SDS011;2256;48.740;9.106;2023-02-20T13:29:22;8.30;;;1.70;;
4486;SDS011;2256;48.740;9.106;2023-02-20T13:31:52;16.83;;;1.43;;
4486;SDS011;2256;48.740;9.106;2023-02-20T13:34:27;2.43;;;1.30;;
4486;SDS011;2256;48.740;9.106;2023-02-20T13:36:59;3.17;;;1.40;;
4486;SDS011;2256;48.740;9.106;2023-02-20T13:39:34;2.83;;;1.30;;
4486;SDS011;2256;48.740;9.106;2023-02-20T13:42:03;6.37;;;2.03;;
4486;SDS011;2256;48.740;9.106;2023-02-20T13:44:50;3.93;;;1.20;;
4486;SDS011;2256;48.740;9.106;2023-02-20T13:47:30;9.07;;;1.50;;
4486;SDS011;2256;48.740;9.106;2023-02-20T13:53:01;10.47;;;1.70;;
4486;SDS011;2256;48.740;9.106;2023-02-20T13:55:31;2.43;;;1.20;;
4486;SDS011;2256;48.740;9.106;2023-02-20T13:58:03;5.90;;;1.37;;
4486;SDS011;2256;48.740;9.106;2023-02-20T14:00:38;4.43;;;1.57;;
4486;SDS011;2256;48.740;9.106;2023-02-20T14:03:11;2.83;;;1.10;;
4486;SDS011;2256;48.740;9.106;2023-02-20T14:05:43;11.93;;;1.33;;
4486;SDS011;2256;48.740;9.106;2023-02-20T14:08:15;1.73;;;1.50;;
4486;SDS011;2256;48.740;9.106;2023-02-20T14:10:45;4.10;;;1.33;;
4486;SDS011;2256;48.740;9.106;2023-02-20T14:13:14;2.37;;;1.27;;
4486;SDS011;2256;48.740;9.106;2023-02-20T14:15:44;2.03;;;1.17;;
4486;SDS011;2256;48.740;9.106;2023-02-20T14:18:15;2.60;;;1.30;;
4486;SDS011;2256;48.740;9.106;2023-02-20T14:20:44;13.97;;;1.10;;
4486;SDS011;2256;48.740;9.106;2023-02-20T14:23:17;4.60;;;1.20;;
4486;SDS011;2256;48.740;9.106;2023-02-20T14:25:57;5.60;;;1.03;;
4486;SDS011;2256;48.740;9.106;2023-02-20T14:28:24;1.00;;;0.83;;
4486;SDS011;2256;48.740;9.106;2023-02-20T14:31:06;2.20;;;0.90;;
4486;SDS011;2256;48.740;9.106;2023-02-20T14:33:45;4.13;;;1.00;;
4486;SDS011;2256;48.740;9.106;2023-02-20T14:36:33;1.00;;;0.90;;
4486;SDS011;2256;48.740;9.106;2023-02-20T14:39:19;0.90;;;0.80;;
4486;SDS011;2256;48.740;9.106;2023-02-20T14:41:54;1.30;;;1.00;;
4486;SDS011;2256;48.740;9.106;2023-02-20T14:44:22;5.67;;;1.00;;
4486;SDS011;2256;48.740;9.106;2023-02-20T14:46:50;2.00;;;1.10;;
4486;SDS011;2256;48.740;9.106;2023-02-20T14:49:23;2.20;;;0.90;;
4486;SDS011;2256;48.740;9.106;2023-02-20T14:52:03;4.63;;;0.90;;
4486;SDS011;2256;48.740;9.106;2023-02-20T14:54:37;13.43;;;1.47;;
4486;SDS011;2256;48.740;9.106;2023-02-20T14:57:07;3.10;;;1.40;;
4486;SDS011;2256;48.740;9.106;2023-02-20T14:59:37;0.87;;;0.87;;
4486;SDS011;2256;48.740;9.106;2023-02-20T15:02:12;1.80;;;1.10;;
4486;SDS011;2256;48.740;9.106;2023-02-20T15:04:45;1.67;;;1.10;;
4486;SDS011;2256;48.740;9.106;2023-02-20T15:07:13;6.30;;;1.33;;
4486;SDS011;2256;48.740;9.106;2023-02-20T15:09:41;0.83;;;0.83;;
4486;SDS011;2256;48.740;9.106;2023-02-20T15:12:18;1.50;;;0.97;;
4486;SDS011;2256;48.740;9.106;2023-02-20T15:14:51;3.33;;;1.20;;
4486;SDS011;2256;48.740;9.106;2023-02-20T15:17:21;1.20;;;1.10;;
4486;SDS011;2256;48.740;9.106;2023-02-20T15:19:49;3.23;;;0.80;;
4486;SDS011;2256;48.740;9.106;2023-02-20T15:22:24;1.37;;;0.90;;
4486;SDS011;2256;48.740;9.106;2023-02-20T15:24:54;11.40;;;0.93;;
4486;SDS011;2256;48.740;9.106;2023-02-20T15:27:39;2.77;;;1.20;;
4486;SDS011;2256;48.740;9.106;2023-02-20T15:30:26;4.20;;;1.10;;
4486;SDS011;2256;48.740;9.106;2023-02-20T15:32:53;4.60;;;2.00;;
4486;SDS011;2256;48.740;9.106;2023-02-20T15:35:22;2.60;;;1.40;;
4486;SDS011;2256;48.740;9.106;2023-02-20T15:37:53;4.83;;;1.20;;
4486;SDS011;2256;48.740;9.106;2023-02-20T15:40:22;8.27;;;2.40;;
4486;SDS011;2256;48.740;9.106;2023-02-20T15:42:52;2.20;;;1.33;;
4486;SDS011;2256;48.740;9.106;2023-02-20T15:45:21;5.67;;;1.10;;
4486;SDS011;2256;48.740;9.106;2023-02-20T15:47:48;13.50;;;1.43;;
4486;SDS011;2256;48.740;9.106;2023-02-20T15:50:15;1.33;;;1.00;;
4486;SDS011;2256;48.740;9.106;2023-02-20T15:52:43;2.67;;;1.10;;